createdAt,value
2023-01-17T00:02:07.533Z,92894.81
2023-01-17T00:04:52.995Z,92909.66
2023-01-17T00:07:40.148Z,92915.66
2023-01-17T00:10:11.559Z,92915.66
2023-01-17T00:12:40.491Z,92909.72
2023-01-17T00:15:09.560Z,92915.34
2023-01-17T00:17:37.204Z,92924.16
2023-01-17T00:20:22.886Z,92927.53
2023-01-17T00:23:08.464Z,92908.56
2023-01-17T00:25:57.932Z,92920.53
2023-01-17T00:28:25.076Z,92919.75
2023-01-17T00:30:51.651Z,92924.56
2023-01-17T00:33:19.099Z,92928.16
2023-01-17T00:35:46.688Z,92929.38
2023-01-17T00:38:15.428Z,92938.19
2023-01-17T00:40:44.533Z,92927.97
2023-01-17T00:43:31.394Z,92929.38
2023-01-17T00:46:16.936Z,92924.16
2023-01-17T00:49:02.445Z,92926.75
2023-01-17T00:51:48.695Z,92916.16
2023-01-17T00:54:35.217Z,92927.34
2023-01-17T00:57:22.757Z,92923.34
2023-01-17T01:00:08.375Z,92919.56
2023-01-17T01:02:54.803Z,92925.38
2023-01-17T01:05:40.406Z,92927.75
2023-01-17T01:08:35.319Z,92937.38
2023-01-17T01:11:23.548Z,92920.97
2023-01-17T01:14:10.105Z,92917.75
2023-01-17T01:16:55.575Z,92924.56
2023-01-17T01:19:40.798Z,92926.78
2023-01-17T01:22:25.995Z,92930.38
2023-01-17T01:25:12.094Z,92938.75
2023-01-17T01:27:57.425Z,92931.19
2023-01-17T01:30:44.177Z,92939.00
2023-01-17T01:33:19.491Z,92930.34
2023-01-17T01:35:49.304Z,92938.16
2023-01-17T01:38:17.667Z,92945.59
2023-01-17T01:40:50.259Z,92946.78
2023-01-17T01:43:21.104Z,92934.94
2023-01-17T01:45:55.120Z,92929.34
2023-01-17T01:48:35.725Z,92937.56
2023-01-17T01:51:07.155Z,92936.19
2023-01-17T01:53:38.683Z,92919.78
2023-01-17T01:56:10.503Z,92930.19
2023-01-17T01:58:39.838Z,92942.59
2023-01-17T02:01:10.310Z,92936.97
2023-01-17T02:03:41.090Z,92941.75
2023-01-17T02:06:20.846Z,92934.94
2023-01-17T02:08:49.873Z,92938.56
2023-01-17T02:11:17.535Z,92943.38
2023-01-17T02:13:45.653Z,92939.75
2023-01-17T02:16:26.896Z,92939.19
2023-01-17T02:19:06.909Z,92938.09
2023-01-17T02:21:39.132Z,92941.53
2023-01-17T02:24:35.903Z,92929.34
2023-01-17T02:27:15.496Z,92929.53
2023-01-17T02:30:33.622Z,92928.91
2023-01-17T02:33:09.915Z,92928.72
2023-01-17T02:35:48.814Z,92930.56
2023-01-17T02:38:31.208Z,92924.56
2023-01-17T02:41:05.609Z,92924.97
2023-01-17T02:43:34.409Z,92927.34
2023-01-17T02:46:03.690Z,92925.13
2023-01-17T02:48:34.479Z,92928.78
2023-01-17T02:51:24.010Z,92930.09
2023-01-17T02:54:05.384Z,92922.13
2023-01-17T02:56:48.574Z,92929.13
2023-01-17T02:59:29.318Z,92925.94
2023-01-17T03:02:10.946Z,92924.94
2023-01-17T03:04:45.730Z,92918.69
2023-01-17T03:07:17.564Z,92930.91
2023-01-17T03:09:48.846Z,92921.66
2023-01-17T03:12:16.797Z,92930.69
2023-01-17T03:14:44.753Z,92934.09
2023-01-17T03:17:13.947Z,92939.84
2023-01-17T03:19:42.031Z,92939.63
2023-01-17T03:22:10.338Z,92937.81
2023-01-17T03:24:38.451Z,92943.06
2023-01-17T03:27:06.609Z,92947.63
2023-01-17T03:29:34.264Z,92947.63
2023-01-17T03:32:02.289Z,92947.34
2023-01-17T03:34:31.250Z,92952.19
2023-01-17T03:36:59.524Z,92954.06
2023-01-17T03:39:27.105Z,92947.91
2023-01-17T03:41:54.862Z,92949.06
2023-01-17T03:44:22.568Z,92938.94
2023-01-17T03:46:50.597Z,92945.31
2023-01-17T03:49:18.386Z,92942.53
2023-01-17T03:51:47.431Z,92942.97
2023-01-17T03:54:15.042Z,92927.75
2023-01-17T03:56:43.014Z,92931.34
2023-01-17T03:59:13.087Z,92938.56
2023-01-17T04:01:41.728Z,92935.78
2023-01-17T04:04:09.429Z,92942.16
2023-01-17T04:06:37.212Z,92940.16
2023-01-17T04:09:06.493Z,92931.38
2023-01-17T04:11:34.635Z,92933.75
2023-01-17T04:14:02.314Z,92949.34
2023-01-17T04:16:32.426Z,92938.75
2023-01-17T04:19:00.113Z,92935.38
2023-01-17T04:21:28.112Z,92941.38
2023-01-17T04:23:55.716Z,92934.97
2023-01-17T04:26:25.089Z,92940.75
2023-01-17T04:28:52.670Z,92941.97
2023-01-17T04:31:20.492Z,92948.75
2023-01-17T04:33:48.907Z,92951.16
2023-01-17T04:36:16.889Z,92945.34
2023-01-17T04:38:44.932Z,92946.53
2023-01-17T04:41:12.885Z,92945.31
2023-01-17T04:43:41.838Z,92947.31
2023-01-17T04:46:10.894Z,92952.91
2023-01-17T04:48:38.572Z,92956.50
2023-01-17T04:51:08.071Z,92952.31
2023-01-17T04:53:35.666Z,92957.50
2023-01-17T04:56:03.851Z,92957.06
2023-01-17T04:58:33.336Z,92959.25
2023-01-17T05:01:04.433Z,92964.28
2023-01-17T05:03:32.607Z,92958.09
2023-01-17T05:06:00.691Z,92955.34
2023-01-17T05:08:29.331Z,92952.94
2023-01-17T05:10:57.109Z,92954.53
2023-01-17T05:13:24.863Z,92941.72
2023-01-17T05:15:52.720Z,92946.50
2023-01-17T05:18:22.049Z,92940.50
2023-01-17T05:20:49.677Z,92949.94
2023-01-17T05:23:17.757Z,92948.53
2023-01-17T05:25:45.445Z,92953.75
2023-01-17T05:28:14.342Z,92961.75
2023-01-17T05:30:42.263Z,92964.94
2023-01-17T05:33:10.803Z,92971.34
2023-01-17T05:35:40.147Z,92962.38
2023-01-17T05:38:07.871Z,92964.59
2023-01-17T05:40:35.644Z,92967.38
2023-01-17T05:43:04.504Z,92956.91
2023-01-17T05:45:33.364Z,92954.13
2023-01-17T05:48:01.697Z,92967.31
2023-01-17T05:50:30.990Z,92972.91
2023-01-17T05:53:02.474Z,92953.94
2023-01-17T05:55:31.477Z,92963.53
2023-01-17T05:58:00.492Z,92975.69
2023-01-17T06:00:29.125Z,92971.69
2023-01-17T06:02:58.004Z,92967.31
2023-01-17T06:05:27.014Z,92961.28
2023-01-17T06:07:56.664Z,92962.47
2023-01-17T06:10:26.973Z,92960.50
2023-01-17T06:13:02.042Z,92957.28
2023-01-17T06:15:29.965Z,92958.47
2023-01-17T06:17:57.720Z,92959.88
2023-01-17T06:20:25.375Z,92957.88
2023-01-17T06:22:53.030Z,92959.44
2023-01-17T06:25:20.671Z,92953.66
2023-01-17T06:27:50.367Z,92962.03
2023-01-17T06:30:18.433Z,92955.56
2023-01-17T06:32:48.697Z,92953.00
2023-01-17T06:35:16.332Z,92949.47
2023-01-17T06:37:43.959Z,92941.06
2023-01-17T06:40:13.117Z,92944.78
2023-01-17T06:42:40.748Z,92943.06
2023-01-17T06:45:11.409Z,92947.84
2023-01-17T06:47:39.452Z,92946.09
2023-01-17T06:50:08.009Z,92941.69
2023-01-17T06:52:35.616Z,92944.75
2023-01-17T06:55:03.539Z,92943.13
2023-01-17T06:57:31.139Z,92941.03
2023-01-17T06:59:59.245Z,92947.88
2023-01-17T07:02:28.284Z,92943.47
2023-01-17T07:04:56.226Z,92942.69
2023-01-17T07:07:24.805Z,92943.69
2023-01-17T07:09:52.617Z,92945.28
2023-01-17T07:12:20.581Z,92945.28
2023-01-17T07:14:49.042Z,92945.66
2023-01-17T07:17:16.657Z,92945.66
2023-01-17T07:19:46.239Z,92940.69
2023-01-17T07:22:13.912Z,92943.28
2023-01-17T07:24:41.506Z,92939.88
2023-01-17T07:27:09.320Z,92938.69
2023-01-17T07:29:37.232Z,92936.50
2023-01-17T07:32:04.839Z,92943.09
2023-01-17T07:34:32.457Z,92930.31
2023-01-17T07:37:01.881Z,92929.72
2023-01-17T07:39:29.726Z,92926.38
2023-01-17T07:41:57.321Z,92925.41
2023-01-17T07:44:25.103Z,92925.88
2023-01-17T07:46:52.764Z,92921.50
2023-01-17T07:49:20.716Z,92918.31
2023-01-17T07:51:48.750Z,92925.94
2023-01-17T07:54:18.276Z,92914.22
2023-01-17T07:56:47.163Z,92924.03
2023-01-17T07:59:15.464Z,92917.66
2023-01-17T08:01:43.156Z,92912.53
2023-01-17T08:04:11.958Z,92908.56
2023-01-17T08:06:43.152Z,92903.94
2023-01-17T08:09:11.501Z,92896.75
2023-01-17T08:11:40.526Z,92906.56
2023-01-17T08:14:08.828Z,92902.72
2023-01-17T08:16:37.554Z,92908.13
2023-01-17T08:19:06.042Z,92907.34
2023-01-17T08:21:33.647Z,92901.72
2023-01-17T08:24:01.952Z,92891.34
2023-01-17T08:26:29.566Z,92884.94
2023-01-17T08:29:01.209Z,92880.72
2023-01-17T08:31:30.187Z,92881.53
2023-01-17T08:33:58.199Z,92887.13
2023-01-17T08:36:28.845Z,92897.94
2023-01-17T08:38:56.741Z,92898.94
2023-01-17T08:41:27.368Z,92899.34
2023-01-17T08:43:55.165Z,92904.13
2023-01-17T08:46:25.194Z,92903.50
2023-01-17T08:48:55.652Z,92905.66
2023-01-17T08:51:25.065Z,92902.22
2023-01-17T08:53:52.899Z,92889.16
2023-01-17T08:56:21.288Z,92898.69
2023-01-17T08:58:48.881Z,92897.06
2023-01-17T09:01:17.266Z,92894.03
2023-01-17T09:03:46.532Z,92902.50
2023-01-17T09:06:17.123Z,92894.59
2023-01-17T09:08:46.837Z,92898.69
2023-01-17T09:11:17.385Z,92891.28
2023-01-17T09:13:45.026Z,92893.66
2023-01-17T09:16:12.864Z,92889.03
2023-01-17T09:18:40.510Z,92895.28
2023-01-17T09:21:14.296Z,92888.78
2023-01-17T09:23:42.629Z,92886.69
2023-01-17T09:26:19.041Z,92880.09
2023-01-17T09:28:46.738Z,92872.53
2023-01-17T09:31:17.284Z,92875.59
2023-01-17T09:33:45.170Z,92866.47
2023-01-17T09:36:14.397Z,92865.53
2023-01-17T09:38:42.502Z,92853.44
2023-01-17T09:41:23.097Z,92851.03
2023-01-17T09:43:55.040Z,92833.22
2023-01-17T09:46:27.773Z,92826.34
2023-01-17T09:49:02.792Z,92813.97
2023-01-17T09:51:33.167Z,92814.03
2023-01-17T09:54:02.366Z,92802.72
2023-01-17T09:56:36.460Z,92804.34
2023-01-17T09:59:18.965Z,92793.31
2023-01-17T10:01:58.035Z,92799.19
2023-01-17T10:04:53.170Z,92789.22
2023-01-17T10:07:34.840Z,92774.91
2023-01-17T10:10:18.353Z,92775.19
2023-01-17T10:12:55.966Z,92778.91
2023-01-17T10:15:40.607Z,92778.31
2023-01-17T10:18:31.150Z,92775.91
2023-01-17T10:21:05.596Z,92774.38
2023-01-17T10:23:56.231Z,92758.78
2023-01-17T10:26:27.198Z,92754.81
2023-01-17T10:29:01.659Z,92761.25
2023-01-17T10:31:35.728Z,92759.81
2023-01-17T10:34:12.871Z,92762.03
2023-01-17T10:36:46.068Z,92766.81
2023-01-17T10:39:20.272Z,92766.97
2023-01-17T10:41:56.250Z,92753.22
2023-01-17T10:44:29.873Z,92761.09
2023-01-17T10:47:03.282Z,92755.56
2023-01-17T10:49:31.656Z,92754.03
2023-01-17T10:52:13.799Z,92753.91
2023-01-17T10:54:54.565Z,92750.56
2023-01-17T10:57:25.233Z,92748.19
2023-01-17T10:59:53.609Z,92745.78
2023-01-17T11:02:25.896Z,92737.25
2023-01-17T11:04:55.681Z,92733.78
2023-01-17T11:07:25.774Z,92733.00
2023-01-17T11:09:56.315Z,92731.19
2023-01-17T11:12:28.536Z,92731.47
2023-01-17T11:15:02.556Z,92729.56
2023-01-17T11:17:31.376Z,92718.44
2023-01-17T11:20:15.100Z,92716.28
2023-01-17T11:22:45.684Z,92718.25
2023-01-17T11:25:22.982Z,92704.28
2023-01-17T11:28:02.093Z,92700.75
2023-01-17T11:30:30.340Z,92696.88
2023-01-17T11:33:01.026Z,92689.94
2023-01-17T11:35:31.129Z,92692.31
2023-01-17T11:38:05.778Z,92687.50
2023-01-17T11:40:42.199Z,92682.47
2023-01-17T11:43:23.399Z,92678.50
2023-01-17T11:46:03.675Z,92685.34
2023-01-17T11:48:39.827Z,92682.06
2023-01-17T11:51:20.049Z,92678.88
2023-01-17T11:53:49.245Z,92675.94
2023-01-17T11:56:29.008Z,92670.91
2023-01-17T11:59:15.072Z,92668.66
2023-01-17T12:01:47.997Z,92659.09
2023-01-17T12:04:25.123Z,92649.53
2023-01-17T12:07:08.513Z,92656.38
2023-01-17T12:09:43.545Z,92651.22
2023-01-17T12:12:39.181Z,92649.28
2023-01-17T12:15:20.476Z,92634.63
2023-01-17T12:18:02.221Z,92630.53
2023-01-17T12:20:39.774Z,92623.78
2023-01-17T12:23:28.025Z,92616.41
2023-01-17T12:26:06.739Z,92608.06
2023-01-17T12:29:20.208Z,92601.25
2023-01-17T12:31:57.960Z,92580.31
2023-01-17T12:34:31.441Z,92575.00
2023-01-17T12:37:04.994Z,92568.75
2023-01-17T12:39:38.126Z,92569.41
2023-01-17T12:42:13.403Z,92567.28
2023-01-17T12:44:51.834Z,92563.19
2023-01-17T12:47:21.851Z,92553.16
2023-01-17T12:49:57.366Z,92534.78
2023-01-17T12:52:42.454Z,92534.66
2023-01-17T12:55:18.299Z,92544.13
2023-01-17T12:57:53.186Z,92538.31
2023-01-17T13:00:25.512Z,92547.41
2023-01-17T13:02:58.474Z,92546.03
2023-01-17T13:05:31.736Z,92544.06
2023-01-17T13:08:07.500Z,92532.59
2023-01-17T13:10:39.790Z,92535.19
2023-01-17T13:13:20.392Z,92537.47
2023-01-17T13:15:50.711Z,92538.25
2023-01-17T13:18:25.614Z,92546.09
2023-01-17T13:21:06.066Z,92533.47
2023-01-17T13:23:48.920Z,92528.88
2023-01-17T13:26:25.363Z,92524.25
2023-01-17T13:29:01.175Z,92524.94
2023-01-17T13:31:38.720Z,92518.63
2023-01-17T13:34:25.790Z,92512.66
2023-01-17T13:37:18.377Z,92501.91
2023-01-17T13:40:06.464Z,92490.75
2023-01-17T13:42:46.911Z,92490.47
2023-01-17T13:45:20.350Z,92487.84
2023-01-17T13:47:49.599Z,92485.53
2023-01-17T13:50:50.068Z,92471.34
2023-01-17T13:53:57.426Z,92461.38
2023-01-17T13:56:31.654Z,92454.34
2023-01-17T13:59:19.625Z,92454.25
2023-01-17T14:01:54.693Z,92439.81
2023-01-17T14:04:24.921Z,92448.34
2023-01-17T14:07:01.048Z,92434.25
2023-01-17T14:09:41.475Z,92436.88
2023-01-17T14:12:29.600Z,92429.84
2023-01-17T14:14:57.973Z,92422.44
2023-01-17T14:17:55.623Z,92432.09
2023-01-17T14:21:09.288Z,92442.41
2023-01-17T14:23:55.491Z,92447.06
2023-01-17T14:26:50.034Z,92437.97
2023-01-17T14:29:58.973Z,92435.28
2023-01-17T14:32:31.371Z,92438.22
2023-01-17T14:34:59.697Z,92435.91
2023-01-17T14:37:46.617Z,92434.66
2023-01-17T14:40:17.389Z,92437.75
2023-01-17T14:42:46.453Z,92426.97
2023-01-17T14:45:22.367Z,92426.25
2023-01-17T14:47:51.447Z,92422.53
2023-01-17T14:50:26.429Z,92431.63
2023-01-17T14:53:15.331Z,92425.03
2023-01-17T14:55:55.335Z,92422.31
2023-01-17T14:58:25.411Z,92420.59
2023-01-17T15:00:57.193Z,92431.94
2023-01-17T15:03:25.087Z,92419.22
2023-01-17T15:05:55.289Z,92413.88
2023-01-17T15:08:27.110Z,92412.41
2023-01-17T15:11:00.073Z,92414.31
2023-01-17T15:13:43.740Z,92427.03
2023-01-17T15:16:21.489Z,92431.88
2023-01-17T15:18:50.244Z,92431.53
2023-01-17T15:21:20.653Z,92435.25
2023-01-17T15:23:51.294Z,92432.41
2023-01-17T15:26:24.924Z,92427.28
2023-01-17T15:28:53.194Z,92428.13
2023-01-17T15:31:40.492Z,92424.56
2023-01-17T15:34:10.416Z,92424.91
2023-01-17T15:36:38.539Z,92426.00
2023-01-17T15:39:15.795Z,92415.03
2023-01-17T15:41:45.808Z,92418.16
2023-01-17T15:44:31.154Z,92421.44
2023-01-17T15:47:05.131Z,92422.09
2023-01-17T15:49:32.907Z,92416.53
2023-01-17T15:52:15.269Z,92418.56
2023-01-17T15:54:47.468Z,92409.13
2023-01-17T15:57:26.099Z,92406.53
2023-01-17T15:59:56.908Z,92399.84
2023-01-17T16:02:37.362Z,92383.25
2023-01-17T16:05:35.205Z,92394.97
2023-01-17T16:08:29.483Z,92401.84
2023-01-17T16:11:01.880Z,92403.81
2023-01-17T16:13:31.606Z,92400.63
2023-01-17T16:16:18.568Z,92405.03
2023-01-17T16:18:47.819Z,92415.09
2023-01-17T16:21:23.648Z,92422.34
2023-01-17T16:23:52.289Z,92427.91
2023-01-17T16:26:20.770Z,92417.28
2023-01-17T16:28:49.691Z,92426.69
2023-01-17T16:31:18.253Z,92428.91
2023-01-17T16:33:46.146Z,92438.69
2023-01-17T16:36:16.540Z,92436.88
2023-01-17T16:38:46.717Z,92450.28
2023-01-17T16:41:14.332Z,92460.28
2023-01-17T16:43:41.969Z,92449.41
2023-01-17T16:46:12.349Z,92438.97
2023-01-17T16:48:40.071Z,92442.94
2023-01-17T16:51:09.047Z,92440.13
2023-01-17T16:53:37.575Z,92433.75
2023-01-17T16:56:13.879Z,92435.34
2023-01-17T16:58:42.532Z,92441.22
2023-01-17T17:01:11.603Z,92431.78
2023-01-17T17:03:39.283Z,92436.81
2023-01-17T17:06:07.578Z,92439.44
2023-01-17T17:08:36.036Z,92449.94
2023-01-17T17:11:17.165Z,92453.44
2023-01-17T17:13:47.533Z,92459.84
2023-01-17T17:16:18.677Z,92470.69
2023-01-17T17:18:47.784Z,92472.72
2023-01-17T17:21:15.597Z,92475.91
2023-01-17T17:23:43.227Z,92473.31
2023-01-17T17:26:12.600Z,92475.69
2023-01-17T17:28:40.581Z,92478.53
2023-01-17T17:31:11.307Z,92473.88
2023-01-17T17:33:41.858Z,92460.63
2023-01-17T17:36:11.374Z,92459.38
2023-01-17T17:38:50.961Z,92463.47
2023-01-17T17:41:22.299Z,92468.22
2023-01-17T17:43:51.185Z,92459.84
2023-01-17T17:46:20.649Z,92465.50
2023-01-17T17:48:49.103Z,92456.66
2023-01-17T17:51:26.177Z,92459.38
2023-01-17T17:53:54.581Z,92460.63
2023-01-17T17:56:25.359Z,92468.09
2023-01-17T17:58:53.242Z,92468.66
2023-01-17T18:01:22.793Z,92479.66
2023-01-17T18:03:50.976Z,92471.84
2023-01-17T18:06:19.312Z,92482.44
2023-01-17T18:08:48.210Z,92485.44
2023-01-17T18:11:18.728Z,92492.13
2023-01-17T18:13:50.998Z,92493.56
2023-01-17T18:16:20.860Z,92514.06
2023-01-17T18:18:51.128Z,92514.84
2023-01-17T18:21:23.673Z,92520.06
2023-01-17T18:23:54.259Z,92522.69
2023-01-17T18:26:24.290Z,92527.31
2023-01-17T18:28:54.212Z,92527.31
2023-01-17T18:31:23.956Z,92527.72
2023-01-17T18:33:52.563Z,92526.53
2023-01-17T18:36:21.611Z,92533.56
2023-01-17T18:38:50.181Z,92538.16
2023-01-17T18:41:19.948Z,92544.59
2023-01-17T18:43:48.298Z,92534.56
2023-01-17T18:46:18.939Z,92539.13
2023-01-17T18:48:48.072Z,92544.56
2023-01-17T18:51:17.774Z,92543.53
2023-01-17T18:53:47.854Z,92543.97
2023-01-17T18:56:18.455Z,92547.88
2023-01-17T18:58:48.574Z,92547.00
2023-01-17T19:01:19.357Z,92551.63
2023-01-17T19:03:49.568Z,92551.63
2023-01-17T19:06:19.980Z,92553.78
2023-01-17T19:08:49.786Z,92567.13
2023-01-17T19:11:17.393Z,92576.03
2023-01-17T19:13:46.423Z,92567.47
2023-01-17T19:16:15.871Z,92564.00
2023-01-17T19:18:45.145Z,92566.53
2023-01-17T19:21:14.488Z,92568.44
2023-01-17T19:23:43.926Z,92582.53
2023-01-17T19:26:12.498Z,92581.41
2023-01-17T19:28:41.932Z,92586.22
2023-01-17T19:31:10.960Z,92573.88
2023-01-17T19:33:41.230Z,92574.59
2023-01-17T19:36:13.429Z,92588.22
2023-01-17T19:38:45.521Z,92582.25
2023-01-17T19:41:20.147Z,92582.56
2023-01-17T19:43:48.623Z,92585.13
2023-01-17T19:46:20.362Z,92582.47
2023-01-17T19:48:48.846Z,92590.81
2023-01-17T19:51:18.108Z,92595.22
2023-01-17T19:53:45.850Z,92594.47
2023-01-17T19:56:15.552Z,92584.88
2023-01-17T19:58:45.289Z,92591.28
2023-01-17T20:01:15.368Z,92594.69
2023-01-17T20:03:45.091Z,92573.06
2023-01-17T20:06:14.726Z,92576.59
2023-01-17T20:08:45.254Z,92572.22
2023-01-17T20:11:14.853Z,92574.25
2023-01-17T20:13:42.833Z,92556.47
2023-01-17T20:16:13.649Z,92574.84
2023-01-17T20:18:41.942Z,92573.47
2023-01-17T20:21:12.211Z,92587.28
2023-01-17T20:23:42.979Z,92582.28
2023-01-17T20:26:13.059Z,92585.13
2023-01-17T20:28:43.063Z,92575.94
2023-01-17T20:31:13.201Z,92576.91
2023-01-17T20:33:42.091Z,92581.13
2023-01-17T20:36:12.897Z,92583.13
2023-01-17T20:38:46.861Z,92585.34
2023-01-17T20:41:17.988Z,92583.97
2023-01-17T20:43:47.653Z,92590.00
2023-01-17T20:46:16.066Z,92584.44
2023-01-17T20:48:45.185Z,92588.88
2023-01-17T20:51:13.491Z,92592.28
2023-01-17T20:53:44.318Z,92587.94
2023-01-17T20:56:14.967Z,92596.78
2023-01-17T20:58:44.199Z,92588.19
2023-01-17T21:01:13.832Z,92577.81
2023-01-17T21:03:42.465Z,92579.44
2023-01-17T21:06:13.638Z,92580.81
2023-01-17T21:08:43.219Z,92575.63
2023-01-17T21:11:13.142Z,92578.19
2023-01-17T21:13:41.527Z,92585.78
2023-01-17T21:16:14.209Z,92575.75
2023-01-17T21:18:42.139Z,92577.34
2023-01-17T21:21:13.311Z,92583.13
2023-01-17T21:23:42.659Z,92591.31
2023-01-17T21:26:13.025Z,92589.47
2023-01-17T21:28:43.372Z,92593.72
2023-01-17T21:31:20.360Z,92594.09
2023-01-17T21:33:48.866Z,92602.91
2023-01-17T21:36:17.235Z,92606.06
2023-01-17T21:38:50.004Z,92602.69
2023-01-17T21:41:17.599Z,92600.53
2023-01-17T21:43:45.316Z,92586.56
2023-01-17T21:46:14.463Z,92593.06
2023-01-17T21:48:46.198Z,92594.66
2023-01-17T21:51:14.235Z,92588.88
2023-01-17T21:53:41.888Z,92586.09
2023-01-17T21:56:31.511Z,92592.13
2023-01-17T21:58:59.727Z,92591.09
2023-01-17T22:01:31.682Z,92596.25
2023-01-17T22:04:02.722Z,92599.44
2023-01-17T22:06:33.452Z,92603.00
2023-01-17T22:09:01.219Z,92599.97
2023-01-17T22:11:30.590Z,92613.75
2023-01-17T22:13:59.380Z,92609.31
2023-01-17T22:16:29.274Z,92612.91
2023-01-17T22:18:57.012Z,92610.03
2023-01-17T22:21:28.454Z,92606.84
2023-01-17T22:23:58.244Z,92611.63
2023-01-17T22:26:28.797Z,92609.22
2023-01-17T22:28:57.051Z,92614.06
2023-01-17T22:31:27.214Z,92612.88
2023-01-17T22:33:57.750Z,92611.34
2023-01-17T22:36:26.163Z,92611.72
2023-01-17T22:38:54.178Z,92609.69
2023-01-17T22:41:24.563Z,92606.94
2023-01-17T22:43:57.694Z,92619.72
2023-01-17T22:46:28.813Z,92621.34
2023-01-17T22:48:58.702Z,92619.16
2023-01-17T22:51:28.418Z,92612.56
2023-01-17T22:53:57.792Z,92618.56
2023-01-17T22:56:27.948Z,92618.31
2023-01-17T22:58:55.904Z,92621.31
2023-01-17T23:01:26.023Z,92623.91
2023-01-17T23:03:55.475Z,92616.13
2023-01-17T23:06:27.199Z,92618.94
2023-01-17T23:08:56.557Z,92627.34
2023-01-17T23:11:46.663Z,92627.34
2023-01-17T23:14:16.966Z,92624.16
2023-01-17T23:17:06.063Z,92627.75
2023-01-17T23:19:35.838Z,92623.75
2023-01-17T23:22:16.603Z,92623.34
2023-01-17T23:24:45.326Z,92628.56
2023-01-17T23:27:33.136Z,92629.44
2023-01-17T23:30:01.743Z,92619.84
2023-01-17T23:32:29.812Z,92636.66
2023-01-17T23:34:57.421Z,92635.47
2023-01-17T23:37:47.657Z,92639.25
2023-01-17T23:40:15.543Z,92633.03
2023-01-17T23:43:01.603Z,92639.84
2023-01-17T23:45:29.405Z,92631.84
2023-01-17T23:47:57.878Z,92623.06
2023-01-17T23:50:25.487Z,92622.44
2023-01-17T23:52:55.148Z,92614.91
2023-01-17T23:55:23.075Z,92625.31
2023-01-17T23:57:51.990Z,92618.34
